Time;durP1;ratioP1;P1;durP2;ratioP2;P2;SDS_P1;SDS_P2;PMS_P1;PMS_P2;Temp;Humidity;BMP_temperature;BMP_pressure;BME280_temperature;BME280_humidity;BME280_pressure;Samples;Min_cycle;Max_cycle;Signal;HPM_P1;HPM_P2
2023/04/29 00:02:45;;;;;;;2.73;2.13;;;;;;;12.34;100.00;99661.28;31224233;28;20084;-75
2023/04/29 00:17:47;;;;;;;5.47;2.33;;;;;;;12.32;100.00;99657.47;31246291;28;20057;-76
2023/04/29 00:32:48;;;;;;;3.33;2.10;;;;;;;12.29;100.00;99661.84;31243456;28;20061;-75
2023/04/29 00:47:50;;;;;;;4.27;2.20;;;;;;;12.25;100.00;99661.22;31220942;28;20142;-76
2023/04/29 01:02:55;;;;;;;5.13;2.63;;;;;;;12.25;100.00;99675.59;31230852;28;20103;-77
2023/04/29 01:18:22;;;;;;;5.47;2.87;;;;;;;12.16;100.00;99674.72;31271128;28;20048;-75
2023/04/29 01:33:36;;;;;;;4.23;2.40;;;;;;;11.95;100.00;99674.22;31270637;28;20127;-76
2023/04/29 01:48:39;;;;;;;7.23;3.07;;;;;;;11.95;100.00;99674.22;31242752;28;20057;-77
2023/04/29 02:03:41;;;;;;;10.27;3.83;;;;;;;11.93;100.00;99684.00;31250553;28;21023;-77
2023/04/29 02:18:44;;;;;;;5.03;2.30;;;;;;;11.99;100.00;99692.38;31242407;28;20053;-77
2023/04/29 02:33:45;;;;;;;2.33;1.30;;;;;;;11.92;100.00;99696.84;31262337;28;20048;-76
2023/04/29 02:48:48;;;;;;;4.20;2.30;;;;;;;12.04;100.00;99714.38;31250098;28;20057;-76
2023/04/29 03:03:49;;;;;;;9.10;4.33;;;;;;;12.04;100.00;99719.06;31227507;28;20115;-76
2023/04/29 03:18:52;;;;;;;11.53;4.53;;;;;;;11.93;100.00;99717.41;31229760;28;20046;-75
2023/04/29 03:33:54;;;;;;;7.60;4.03;;;;;;;11.99;100.00;99719.59;31240615;28;20512;-75
2023/04/29 03:48:56;;;;;;;12.67;4.57;;;;;;;11.95;100.00;99731.34;31268636;28;20050;-77
2023/04/29 04:03:58;;;;;;;6.97;4.27;;;;;;;11.89;100.00;99741.25;31242712;28;20126;-77
2023/04/29 04:19:01;;;;;;;7.27;4.53;;;;;;;12.03;100.00;99733.84;31235983;28;20436;-76
2023/04/29 04:34:02;;;;;;;7.43;3.87;;;;;;;12.16;100.00;99753.63;31262818;28;20053;-76
2023/04/29 04:49:06;;;;;;;8.37;3.63;;;;;;;12.33;100.00;99752.28;31286367;28;20068;-76
2023/04/29 05:04:08;;;;;;;7.77;4.10;;;;;;;12.16;100.00;99764.50;31273758;28;20114;-76
2023/04/29 05:19:10;;;;;;;7.00;4.27;;;;;;;12.24;100.00;99776.72;31263681;28;20045;-78
2023/04/29 05:34:12;;;;;;;3.73;2.20;;;;;;;12.12;100.00;99780.19;31253163;28;20064;-76
2023/04/29 05:49:15;;;;;;;3.53;2.00;;;;;;;12.29;100.00;99811.50;31270479;28;20038;-76
2023/04/29 06:04:16;;;;;;;5.53;2.63;;;;;;;12.27;100.00;99827.56;31261170;28;20057;-76
2023/04/29 06:19:19;;;;;;;5.80;2.67;;;;;;;12.44;100.00;99849.97;31233421;28;20057;-75
2023/04/29 06:34:21;;;;;;;4.77;2.83;;;;;;;12.74;100.00;99878.59;31215472;28;20060;-76
2023/04/29 06:49:23;;;;;;;4.10;2.33;;;;;;;12.87;100.00;99865.69;31255559;28;20042;-75
2023/04/29 07:04:25;;;;;;;6.00;2.73;;;;;;;13.09;100.00;99871.19;31191410;28;20049;-74
2023/04/29 07:19:27;;;;;;;7.13;2.97;;;;;;;13.41;100.00;99848.31;31213468;28;20045;-75
2023/04/29 07:34:28;;;;;;;7.60;2.77;;;;;;;13.83;100.00;99844.06;31220135;28;20127;-72
2023/04/29 07:49:31;;;;;;;5.47;2.80;;;;;;;14.08;100.00;99842.34;31211139;28;20053;-74
2023/04/29 08:04:33;;;;;;;4.37;2.63;;;;;;;13.88;100.00;99826.34;31207371;28;20080;-74
2023/04/29 08:19:36;;;;;;;5.43;3.10;;;;;;;14.49;100.00;99831.00;31220336;28;20045;-75
2023/04/29 08:34:40;;;;;;;7.37;3.13;;;;;;;14.59;100.00;99834.53;31211395;28;20065;-75
2023/04/29 08:49:42;;;;;;;7.43;3.70;;;;;;;14.68;100.00;99820.88;31191777;28;20366;-76
2023/04/29 09:05:04;;;;;;;6.77;3.60;;;;;;;14.71;100.00;99811.78;31205304;28;20119;-75
2023/04/29 09:20:21;;;;;;;12.73;3.80;;;;;;;14.96;100.00;99802.53;31199339;28;20047;-74
2023/04/29 09:35:25;;;;;;;9.17;3.70;;;;;;;14.98;100.00;99789.94;31230692;28;20048;-75
2023/04/29 09:50:28;;;;;;;11.20;4.63;;;;;;;15.06;100.00;99787.66;31223856;28;20050;-78
2023/04/29 10:05:31;;;;;;;11.33;5.07;;;;;;;15.01;100.00;99832.78;31213863;28;20057;-81
2023/04/29 10:21:22;;;;;;;11.27;5.10;;;;;;;14.79;100.00;99831.38;31249266;28;20049;-88
2023/04/29 10:36:27;;;;;;;9.90;4.90;;;;;;;14.79;100.00;99842.31;31222660;28;20477;-78
2023/04/29 10:51:45;;;;;;;11.63;5.50;;;;;;;14.86;100.00;99858.41;31203695;28;20045;-78
2023/04/29 11:06:55;;;;;;;7.33;4.67;;;;;;;15.73;100.00;99866.03;31223698;28;20053;-79
2023/04/29 11:22:10;;;;;;;7.57;4.07;;;;;;;15.42;100.00;99863.44;31207332;28;20049;-77
2023/04/29 11:37:17;;;;;;;10.07;3.53;;;;;;;15.52;100.00;99842.31;31222969;28;20064;-78
2023/04/29 11:52:20;;;;;;;7.50;3.50;;;;;;;15.50;100.00;99833.81;31202190;28;20109;-79
2023/04/29 12:07:23;;;;;;;8.23;3.03;;;;;;;15.54;100.00;99815.28;31178744;28;20544;-80
2023/04/29 12:22:32;;;;;;;8.83;3.60;;;;;;;15.35;100.00;99823.47;31200286;28;20475;-79
2023/04/29 12:37:34;;;;;;;8.03;3.90;;;;;;;15.40;100.00;99813.16;31209176;28;20226;-79
2023/04/29 12:52:36;;;;;;;8.50;4.27;;;;;;;15.30;100.00;99824.13;31222916;28;20095;-82
2023/04/29 13:07:38;;;;;;;5.83;3.67;;;;;;;15.13;100.00;99833.81;31251498;28;20049;-80
2023/04/29 13:22:42;;;;;;;7.57;4.47;;;;;;;14.24;100.00;99837.41;31227644;28;20116;-79
2023/04/29 13:37:44;;;;;;;8.47;3.80;;;;;;;13.28;100.00;99819.16;31218689;28;20062;-80
2023/04/29 13:52:46;;;;;;;6.30;3.80;;;;;;;13.06;100.00;99823.78;31241755;28;20102;-85
2023/04/29 14:08:08;;;;;;;9.40;4.40;;;;;;;13.08;100.00;99815.94;31230694;28;20062;-75
2023/04/29 14:23:13;;;;;;;27.03;14.23;;;;;;;12.99;100.00;99826.78;31226230;28;20057;-75
2023/04/29 14:38:16;;;;;;;6.80;3.93;;;;;;;12.95;100.00;99820.69;31214139;28;20143;-75
2023/04/29 14:53:20;;;;;;;7.33;4.10;;;;;;;12.89;100.00;99806.84;31211879;28;20461;-75
2023/04/29 15:08:22;;;;;;;6.23;3.37;;;;;;;12.97;100.00;99796.47;31239246;28;20045;-75
2023/04/29 15:23:24;;;;;;;6.37;4.30;;;;;;;12.89;100.00;99789.75;31227536;28;20045;-75
2023/04/29 15:38:28;;;;;;;8.10;4.43;;;;;;;12.82;100.00;99787.25;31220013;28;20092;-76
2023/04/29 15:53:30;;;;;;;4.37;2.33;;;;;;;12.78;100.00;99792.03;31203693;28;20107;-74
2023/04/29 16:08:32;;;;;;;5.43;2.93;;;;;;;12.76;100.00;99816.25;31236404;28;20045;-75
2023/04/29 16:23:34;;;;;;;4.83;3.33;;;;;;;13.34;100.00;99804.94;31211580;28;20057;-76
2023/04/29 16:38:36;;;;;;;5.73;3.87;;;;;;;13.13;100.00;99801.75;31227629;28;20104;-75
2023/04/29 16:53:39;;;;;;;5.33;3.17;;;;;;;13.11;100.00;99803.38;31230462;28;20076;-75
2023/04/29 17:08:41;;;;;;;8.57;3.17;;;;;;;12.89;100.00;99806.84;31250214;28;20405;-72
2023/04/29 17:23:43;;;;;;;5.67;3.07;;;;;;;12.87;100.00;99808.47;31238615;28;20054;-74
2023/04/29 17:38:45;;;;;;;5.43;3.07;;;;;;;12.94;100.00;99783.72;31236232;28;20422;-76
2023/04/29 17:53:50;;;;;;;5.87;3.20;;;;;;;13.02;100.00;99779.53;31212306;28;20453;-74
2023/04/29 18:09:02;;;;;;;9.63;2.83;;;;;;;12.91;100.00;99795.50;31219726;28;20053;-74
2023/04/29 18:24:04;;;;;;;4.03;2.47;;;;;;;12.64;100.00;99787.84;31226508;28;20054;-77
2023/04/29 18:39:06;;;;;;;9.13;2.97;;;;;;;12.69;100.00;99789.25;31245557;28;20050;-77
2023/04/29 18:54:08;;;;;;;5.30;3.57;;;;;;;12.51;100.00;99768.06;31232206;28;20435;-78
2023/04/29 19:09:10;;;;;;;6.17;3.47;;;;;;;12.60;100.00;99770.88;31221542;28;20053;-77
2023/04/29 19:24:13;;;;;;;5.30;3.10;;;;;;;11.68;100.00;99741.09;31229095;28;20063;-77
2023/04/29 19:39:17;;;;;;;6.27;3.40;;;;;;;11.85;100.00;99701.75;31209851;28;20421;-76
2023/04/29 19:54:19;;;;;;;22.33;13.27;;;;;;;11.83;100.00;99704.91;31231822;28;20088;-79
2023/04/29 20:09:20;;;;;;;7.97;4.03;;;;;;;11.77;100.00;99689.59;31221603;28;20046;-79
2023/04/29 20:24:22;;;;;;;28.73;15.87;;;;;;;11.71;100.00;99694.78;31181886;28;20049;-79
2023/04/29 20:39:25;;;;;;;7.13;3.40;;;;;;;11.81;100.00;99690.25;31193757;28;20062;-80
2023/04/29 20:54:27;;;;;;;6.03;3.70;;;;;;;11.75;100.00;99681.81;31190378;28;20085;-79
2023/04/29 21:09:29;;;;;;;8.60;5.00;;;;;;;11.93;100.00;99687.50;31209059;28;20093;-78
2023/04/29 21:24:30;;;;;;;9.57;5.30;;;;;;;12.55;100.00;99693.22;31230702;28;20661;-79
2023/04/29 21:39:32;;;;;;;11.83;5.70;;;;;;;11.87;100.00;99686.50;31206422;28;20420;-77
2023/04/29 21:54:35;;;;;;;12.73;6.77;;;;;;;11.65;100.00;99658.44;31213490;28;20116;-78
2023/04/29 22:09:37;;;;;;;16.37;8.57;;;;;;;11.83;100.00;99625.25;31230561;28;20053;-79
2023/04/29 22:24:39;;;;;;;18.47;9.33;;;;;;;11.39;100.00;99588.97;31222022;28;20123;-76
2023/04/29 22:39:41;;;;;;;17.73;8.90;;;;;;;11.65;100.00;99593.19;31209045;28;20506;-77
2023/04/29 22:54:43;;;;;;;15.40;8.40;;;;;;;11.19;100.00;99572.91;31235375;28;20111;-77
2023/04/29 23:09:45;;;;;;;15.33;7.83;;;;;;;11.07;100.00;99539.13;31223819;28;20465;-75
2023/04/29 23:24:47;;;;;;;15.30;8.17;;;;;;;11.04;100.00;99504.69;31212891;28;20057;-77
2023/04/29 23:39:50;;;;;;;15.20;7.90;;;;;;;12.09;100.00;99536.19;31225884;28;20115;-77
2023/04/29 23:54:53;;;;;;;12.93;7.33;;;;;;;12.27;100.00;99522.75;31213553;28;20532;-77
